sensor_id;sensor_type;location;lat;lon;timestamp;pressure;altitude;pressure_sealevel;temperature;humidity
40285;BME280;25997;50.214;19.354;2024-03-08T00:01:48;98364.56;;;0.59;52.01
40285;BME280;25997;50.214;19.354;2024-03-08T00:04:50;98377.38;;;0.57;52.27
40285;BME280;25997;50.214;19.354;2024-03-08T00:07:53;98375.88;;;0.61;52.41
40285;BME280;25997;50.214;19.354;2024-03-08T00:10:56;98371.31;;;0.57;52.16
40285;BME280;25997;50.214;19.354;2024-03-08T00:13:59;98365.50;;;0.47;52.21
40285;BME280;25997;50.214;19.354;2024-03-08T00:17:02;98360.88;;;0.43;52.49
40285;BME280;25997;50.214;19.354;2024-03-08T00:20:06;98364.72;;;0.48;52.83
40285;BME280;25997;50.214;19.354;2024-03-08T00:23:09;98365.38;;;0.58;52.46
40285;BME280;25997;50.214;19.354;2024-03-08T00:26:14;98367.22;;;0.60;52.16
40285;BME280;25997;50.214;19.354;2024-03-08T00:29:16;98365.78;;;0.64;52.26
40285;BME280;25997;50.214;19.354;2024-03-08T00:32:18;98360.72;;;0.65;52.40
40285;BME280;25997;50.214;19.354;2024-03-08T00:35:20;98361.59;;;0.66;52.25
40285;BME280;25997;50.214;19.354;2024-03-08T00:38:23;98354.88;;;0.68;52.29
40285;BME280;25997;50.214;19.354;2024-03-08T00:41:27;98358.13;;;0.65;52.03
40285;BME280;25997;50.214;19.354;2024-03-08T00:44:30;98344.78;;;0.59;51.50
40285;BME280;25997;50.214;19.354;2024-03-08T00:47:32;98349.56;;;0.53;51.71
40285;BME280;25997;50.214;19.354;2024-03-08T00:50:35;98356.84;;;0.47;51.67
40285;BME280;25997;50.214;19.354;2024-03-08T00:53:37;98347.66;;;0.39;51.83
40285;BME280;25997;50.214;19.354;2024-03-08T00:56:41;98344.84;;;0.36;51.88
40285;BME280;25997;50.214;19.354;2024-03-08T00:59:43;98343.75;;;0.32;51.88
40285;BME280;25997;50.214;19.354;2024-03-08T01:02:46;98345.19;;;0.29;52.32
40285;BME280;25997;50.214;19.354;2024-03-08T01:05:48;98338.16;;;0.26;52.57
40285;BME280;25997;50.214;19.354;2024-03-08T01:08:50;98345.78;;;0.25;52.52
40285;BME280;25997;50.214;19.354;2024-03-08T01:11:55;98336.94;;;0.21;52.57
40285;BME280;25997;50.214;19.354;2024-03-08T01:14:58;98330.63;;;0.18;52.44
40285;BME280;25997;50.214;19.354;2024-03-08T01:18:00;98331.13;;;0.12;52.68
40285;BME280;25997;50.214;19.354;2024-03-08T01:21:03;98331.78;;;0.10;52.80
40285;BME280;25997;50.214;19.354;2024-03-08T01:24:05;98321.94;;;0.04;53.01
40285;BME280;25997;50.214;19.354;2024-03-08T01:27:09;98329.88;;;0.07;53.30
40285;BME280;25997;50.214;19.354;2024-03-08T01:30:12;98320.47;;;0.08;53.27
40285;BME280;25997;50.214;19.354;2024-03-08T01:33:18;98319.13;;;0.13;53.25
40285;BME280;25997;50.214;19.354;2024-03-08T01:36:23;98318.63;;;0.18;53.10
40285;BME280;25997;50.214;19.354;2024-03-08T01:39:25;98313.91;;;0.24;52.84
40285;BME280;25997;50.214;19.354;2024-03-08T01:42:29;98306.38;;;0.27;52.67
40285;BME280;25997;50.214;19.354;2024-03-08T01:45:32;98303.00;;;0.28;52.39
40285;BME280;25997;50.214;19.354;2024-03-08T01:48:35;98306.72;;;0.20;52.27
40285;BME280;25997;50.214;19.354;2024-03-08T01:51:39;98306.22;;;0.13;52.38
40285;BME280;25997;50.214;19.354;2024-03-08T01:54:42;98299.81;;;0.08;52.41
40285;BME280;25997;50.214;19.354;2024-03-08T01:57:46;98297.16;;;0.06;52.37
40285;BME280;25997;50.214;19.354;2024-03-08T02:00:49;98302.97;;;0.04;52.22
40285;BME280;25997;50.214;19.354;2024-03-08T02:03:51;98302.41;;;0.08;52.35
40285;BME280;25997;50.214;19.354;2024-03-08T02:06:54;98299.41;;;0.02;52.10
40285;BME280;25997;50.214;19.354;2024-03-08T02:09:56;98294.59;;;-0.05;52.81
40285;BME280;25997;50.214;19.354;2024-03-08T02:13:01;98296.84;;;-0.10;53.04
40285;BME280;25997;50.214;19.354;2024-03-08T02:16:04;98292.34;;;-0.12;53.19
40285;BME280;25997;50.214;19.354;2024-03-08T02:19:08;98288.88;;;-0.13;53.30
40285;BME280;25997;50.214;19.354;2024-03-08T02:22:12;98291.00;;;-0.07;52.83
40285;BME280;25997;50.214;19.354;2024-03-08T02:25:15;98288.41;;;-0.07;53.05
40285;BME280;25997;50.214;19.354;2024-03-08T02:28:17;98276.97;;;-0.11;53.05
40285;BME280;25997;50.214;19.354;2024-03-08T02:31:20;98281.59;;;-0.07;53.35
40285;BME280;25997;50.214;19.354;2024-03-08T02:34:22;98280.34;;;-0.00;53.48
40285;BME280;25997;50.214;19.354;2024-03-08T02:37:26;98279.63;;;0.02;53.22
40285;BME280;25997;50.214;19.354;2024-03-08T02:40:29;98277.03;;;0.02;53.69
40285;BME280;25997;50.214;19.354;2024-03-08T02:43:31;98288.50;;;0.06;53.86
40285;BME280;25997;50.214;19.354;2024-03-08T02:46:34;98279.59;;;0.14;53.59
40285;BME280;25997;50.214;19.354;2024-03-08T02:49:37;98282.81;;;0.23;53.56
40285;BME280;25997;50.214;19.354;2024-03-08T02:52:41;98286.94;;;0.32;53.65
40285;BME280;25997;50.214;19.354;2024-03-08T02:55:44;98294.78;;;0.45;53.73
40285;BME280;25997;50.214;19.354;2024-03-08T02:58:46;98287.28;;;0.62;53.90
40285;BME280;25997;50.214;19.354;2024-03-08T03:01:49;98289.00;;;0.74;53.47
40285;BME280;25997;50.214;19.354;2024-03-08T03:04:51;98287.66;;;0.92;53.27
40285;BME280;25997;50.214;19.354;2024-03-08T03:07:56;98286.47;;;1.00;53.26
40285;BME280;25997;50.214;19.354;2024-03-08T03:10:59;98285.00;;;1.04;53.19
40285;BME280;25997;50.214;19.354;2024-03-08T03:14:01;98292.38;;;1.11;53.28
40285;BME280;25997;50.214;19.354;2024-03-08T03:17:03;98292.47;;;1.12;53.24
40285;BME280;25997;50.214;19.354;2024-03-08T03:20:07;98289.50;;;1.19;53.19
40285;BME280;25997;50.214;19.354;2024-03-08T03:23:15;98290.97;;;1.29;53.23
40285;BME280;25997;50.214;19.354;2024-03-08T03:26:21;98290.09;;;1.42;53.02
40285;BME280;25997;50.214;19.354;2024-03-08T03:29:23;98290.09;;;1.55;52.70
40285;BME280;25997;50.214;19.354;2024-03-08T03:32:26;98287.13;;;1.62;52.74
40285;BME280;25997;50.214;19.354;2024-03-08T03:35:29;98284.22;;;1.70;52.42
40285;BME280;25997;50.214;19.354;2024-03-08T03:38:33;98290.34;;;1.85;52.35
40285;BME280;25997;50.214;19.354;2024-03-08T03:41:35;98287.16;;;1.89;51.96
40285;BME280;25997;50.214;19.354;2024-03-08T03:44:38;98294.44;;;1.95;52.10
40285;BME280;25997;50.214;19.354;2024-03-08T03:47:42;98286.13;;;2.00;52.03
40285;BME280;25997;50.214;19.354;2024-03-08T03:50:44;98293.41;;;2.06;52.15
40285;BME280;25997;50.214;19.354;2024-03-08T03:53:48;98282.03;;;2.17;52.32
40285;BME280;25997;50.214;19.354;2024-03-08T03:56:51;98280.59;;;2.22;52.04
40285;BME280;25997;50.214;19.354;2024-03-08T03:59:54;98276.59;;;2.27;52.13
40285;BME280;25997;50.214;19.354;2024-03-08T04:02:56;98273.09;;;2.27;51.88
40285;BME280;25997;50.214;19.354;2024-03-08T04:06:01;98272.41;;;2.29;51.95
40285;BME280;25997;50.214;19.354;2024-03-08T04:09:05;98266.19;;;2.40;52.11
40285;BME280;25997;50.214;19.354;2024-03-08T04:12:07;98261.56;;;2.49;51.87
40285;BME280;25997;50.214;19.354;2024-03-08T04:15:10;98270.59;;;2.56;51.75
40285;BME280;25997;50.214;19.354;2024-03-08T04:18:13;98275.00;;;2.57;51.66
40285;BME280;25997;50.214;19.354;2024-03-08T04:21:15;98272.69;;;2.61;51.60
40285;BME280;25997;50.214;19.354;2024-03-08T04:24:19;98277.88;;;2.61;51.63
40285;BME280;25997;50.214;19.354;2024-03-08T04:27:21;98271.50;;;2.56;51.55
40285;BME280;25997;50.214;19.354;2024-03-08T04:30:23;98266.41;;;2.58;51.49
40285;BME280;25997;50.214;19.354;2024-03-08T04:33:26;98265.81;;;2.62;51.37
40285;BME280;25997;50.214;19.354;2024-03-08T04:36:28;98254.19;;;2.55;51.23
40285;BME280;25997;50.214;19.354;2024-03-08T04:39:32;98269.53;;;2.52;51.54
40285;BME280;25997;50.214;19.354;2024-03-08T04:42:35;98268.53;;;2.50;51.55
40285;BME280;25997;50.214;19.354;2024-03-08T04:45:39;98267.84;;;2.53;51.39
40285;BME280;25997;50.214;19.354;2024-03-08T04:48:43;98270.78;;;2.59;51.15
40285;BME280;25997;50.214;19.354;2024-03-08T04:51:46;98269.38;;;2.64;51.36
40285;BME280;25997;50.214;19.354;2024-03-08T04:54:49;98273.47;;;2.60;50.84
40285;BME280;25997;50.214;19.354;2024-03-08T04:57:52;98269.91;;;2.58;51.16
40285;BME280;25997;50.214;19.354;2024-03-08T05:00:54;98272.56;;;2.60;51.12
40285;BME280;25997;50.214;19.354;2024-03-08T05:03:56;98271.22;;;2.52;50.66
40285;BME280;25997;50.214;19.354;2024-03-08T05:06:59;98270.78;;;2.31;50.35
40285;BME280;25997;50.214;19.354;2024-03-08T05:10:04;98276.22;;;2.21;50.48
40285;BME280;25997;50.214;19.354;2024-03-08T05:13:08;98272.28;;;2.13;50.28
40285;BME280;25997;50.214;19.354;2024-03-08T05:16:10;98277.63;;;2.16;50.36
40285;BME280;25997;50.214;19.354;2024-03-08T05:19:14;98276.03;;;2.18;50.27
40285;BME280;25997;50.214;19.354;2024-03-08T05:22:18;98281.97;;;2.30;50.36
40285;BME280;25997;50.214;19.354;2024-03-08T05:25:22;98280.47;;;2.34;50.32
40285;BME280;25997;50.214;19.354;2024-03-08T05:28:24;98275.75;;;2.41;50.18
40285;BME280;25997;50.214;19.354;2024-03-08T05:31:27;98278.56;;;2.44;50.34
40285;BME280;25997;50.214;19.354;2024-03-08T05:34:30;98289.97;;;2.48;50.24
40285;BME280;25997;50.214;19.354;2024-03-08T05:37:32;98285.69;;;2.48;50.14
40285;BME280;25997;50.214;19.354;2024-03-08T05:40:35;98279.69;;;2.49;50.07
40285;BME280;25997;50.214;19.354;2024-03-08T05:43:38;98281.50;;;2.50;50.40
40285;BME280;25997;50.214;19.354;2024-03-08T05:46:40;98277.66;;;2.44;50.08
40285;BME280;25997;50.214;19.354;2024-03-08T05:49:42;98278.28;;;2.40;50.13
40285;BME280;25997;50.214;19.354;2024-03-08T05:52:46;98274.50;;;2.35;50.27
40285;BME280;25997;50.214;19.354;2024-03-08T05:55:52;98283.44;;;2.40;50.08
40285;BME280;25997;50.214;19.354;2024-03-08T05:58:55;98281.13;;;2.44;50.06
40285;BME280;25997;50.214;19.354;2024-03-08T06:01:57;98287.38;;;2.48;50.02
40285;BME280;25997;50.214;19.354;2024-03-08T06:04:59;98283.47;;;2.54;50.21
40285;BME280;25997;50.214;19.354;2024-03-08T06:08:03;98275.50;;;2.51;49.99
40285;BME280;25997;50.214;19.354;2024-03-08T06:11:07;98291.03;;;2.51;50.07
40285;BME280;25997;50.214;19.354;2024-03-08T06:14:10;98282.69;;;2.55;50.15
40285;BME280;25997;50.214;19.354;2024-03-08T06:17:12;98283.28;;;2.51;49.64
40285;BME280;25997;50.214;19.354;2024-03-08T06:20:14;98282.50;;;2.52;49.96
40285;BME280;25997;50.214;19.354;2024-03-08T06:23:16;98284.03;;;2.63;49.78
40285;BME280;25997;50.214;19.354;2024-03-08T06:26:20;98285.50;;;2.73;50.02
40285;BME280;25997;50.214;19.354;2024-03-08T06:29:22;98286.03;;;2.82;49.68
40285;BME280;25997;50.214;19.354;2024-03-08T06:32:25;98283.28;;;2.94;49.80
40285;BME280;25997;50.214;19.354;2024-03-08T06:35:27;98283.19;;;3.07;49.80
40285;BME280;25997;50.214;19.354;2024-03-08T06:38:32;98290.72;;;3.02;49.33
40285;BME280;25997;50.214;19.354;2024-03-08T06:41:37;98287.88;;;3.12;49.68
40285;BME280;25997;50.214;19.354;2024-03-08T06:44:39;98287.44;;;3.19;49.51
40285;BME280;25997;50.214;19.354;2024-03-08T06:47:49;98291.78;;;3.20;48.09
40285;BME280;25997;50.214;19.354;2024-03-08T06:50:51;98284.56;;;3.15;49.38
40285;BME280;25997;50.214;19.354;2024-03-08T06:53:54;98292.63;;;3.19;49.82
40285;BME280;25997;50.214;19.354;2024-03-08T06:56:57;98278.94;;;3.22;49.24
40285;BME280;25997;50.214;19.354;2024-03-08T07:00:01;98289.41;;;3.09;48.94
40285;BME280;25997;50.214;19.354;2024-03-08T07:03:06;98273.22;;;3.13;49.65
40285;BME280;25997;50.214;19.354;2024-03-08T07:06:12;98287.50;;;3.21;49.08
40285;BME280;25997;50.214;19.354;2024-03-08T07:09:15;98273.75;;;3.22;49.28
40285;BME280;25997;50.214;19.354;2024-03-08T07:12:19;98278.38;;;3.27;49.45
40285;BME280;25997;50.214;19.354;2024-03-08T07:15:24;98277.59;;;3.28;49.34
40285;BME280;25997;50.214;19.354;2024-03-08T07:18:26;98274.53;;;3.35;49.47
40285;BME280;25997;50.214;19.354;2024-03-08T07:21:30;98276.50;;;3.39;48.98
40285;BME280;25997;50.214;19.354;2024-03-08T07:24:33;98278.13;;;3.37;49.21
40285;BME280;25997;50.214;19.354;2024-03-08T07:27:53;98283.56;;;3.42;48.88
40285;BME280;25997;50.214;19.354;2024-03-08T07:30:56;98286.06;;;3.40;48.88
40285;BME280;25997;50.214;19.354;2024-03-08T07:34:10;98286.78;;;3.38;48.78
40285;BME280;25997;50.214;19.354;2024-03-08T07:37:13;98288.66;;;3.40;48.86
40285;BME280;25997;50.214;19.354;2024-03-08T07:40:15;98292.88;;;3.38;48.29
40285;BME280;25997;50.214;19.354;2024-03-08T07:43:20;98293.50;;;3.34;48.01
40285;BME280;25997;50.214;19.354;2024-03-08T07:46:23;98292.72;;;3.06;48.22
40285;BME280;25997;50.214;19.354;2024-03-08T07:49:25;98292.06;;;2.96;48.08
40285;BME280;25997;50.214;19.354;2024-03-08T07:52:27;98292.00;;;2.81;47.93
40285;BME280;25997;50.214;19.354;2024-03-08T07:55:30;98299.16;;;2.85;47.93
40285;BME280;25997;50.214;19.354;2024-03-08T07:58:34;98303.16;;;2.80;47.97
40285;BME280;25997;50.214;19.354;2024-03-08T08:01:36;98300.56;;;2.93;48.26
40285;BME280;25997;50.214;19.354;2024-03-08T08:04:38;98301.03;;;3.15;48.21
40285;BME280;25997;50.214;19.354;2024-03-08T08:07:44;98290.44;;;3.27;47.95
40285;BME280;25997;50.214;19.354;2024-03-08T08:10:47;98287.13;;;3.29;47.69
40285;BME280;25997;50.214;19.354;2024-03-08T08:13:52;98288.84;;;3.14;47.93
40285;BME280;25997;50.214;19.354;2024-03-08T08:16:55;98286.63;;;3.06;47.86
40285;BME280;25997;50.214;19.354;2024-03-08T08:19:58;98285.44;;;3.01;47.84
40285;BME280;25997;50.214;19.354;2024-03-08T08:23:00;98285.91;;;3.08;47.88
40285;BME280;25997;50.214;19.354;2024-03-08T08:26:03;98282.88;;;3.15;47.92
40285;BME280;25997;50.214;19.354;2024-03-08T08:29:07;98280.19;;;3.28;47.87
40285;BME280;25997;50.214;19.354;2024-03-08T08:32:09;98281.69;;;3.25;47.59
40285;BME280;25997;50.214;19.354;2024-03-08T08:35:12;98286.88;;;3.25;47.46
40285;BME280;25997;50.214;19.354;2024-03-08T08:38:14;98280.22;;;3.44;47.64
40285;BME280;25997;50.214;19.354;2024-03-08T08:41:16;98284.97;;;3.52;47.75
40285;BME280;25997;50.214;19.354;2024-03-08T08:44:20;98289.34;;;3.67;47.13
40285;BME280;25997;50.214;19.354;2024-03-08T08:47:23;98287.19;;;3.75;46.90
40285;BME280;25997;50.214;19.354;2024-03-08T08:50:25;98292.50;;;3.92;47.36
40285;BME280;25997;50.214;19.354;2024-03-08T08:53:29;98285.88;;;4.13;47.56
40285;BME280;25997;50.214;19.354;2024-03-08T08:56:32;98281.94;;;4.36;47.36
40285;BME280;25997;50.214;19.354;2024-03-08T08:59:36;98284.63;;;4.70;47.58
40285;BME280;25997;50.214;19.354;2024-03-08T09:02:40;98282.53;;;4.95;46.66
40285;BME280;25997;50.214;19.354;2024-03-08T09:05:43;98269.06;;;5.20;46.43
40285;BME280;25997;50.214;19.354;2024-03-08T09:08:45;98267.44;;;5.39;46.02
40285;BME280;25997;50.214;19.354;2024-03-08T09:11:47;98268.63;;;5.63;45.87
40285;BME280;25997;50.214;19.354;2024-03-08T09:14:52;98270.00;;;6.10;46.44
40285;BME280;25997;50.214;19.354;2024-03-08T09:17:54;98262.38;;;6.51;44.77
40285;BME280;25997;50.214;19.354;2024-03-08T09:20:56;98264.53;;;6.79;44.24
40285;BME280;25997;50.214;19.354;2024-03-08T09:23:59;98261.75;;;6.95;44.31
40285;BME280;25997;50.214;19.354;2024-03-08T09:27:01;98263.13;;;7.27;44.31
40285;BME280;25997;50.214;19.354;2024-03-08T09:30:06;98261.94;;;7.39;43.22
40285;BME280;25997;50.214;19.354;2024-03-08T09:33:08;98270.94;;;7.27;42.85
40285;BME280;25997;50.214;19.354;2024-03-08T09:36:11;98256.84;;;7.02;42.49
40285;BME280;25997;50.214;19.354;2024-03-08T09:39:13;98256.81;;;7.01;42.99
40285;BME280;25997;50.214;19.354;2024-03-08T09:42:17;98260.41;;;6.84;42.61
40285;BME280;25997;50.214;19.354;2024-03-08T09:45:21;98248.13;;;6.81;42.22
40285;BME280;25997;50.214;19.354;2024-03-08T09:48:25;98257.31;;;6.73;42.58
40285;BME280;25997;50.214;19.354;2024-03-08T09:51:28;98251.09;;;6.51;42.14
40285;BME280;25997;50.214;19.354;2024-03-08T09:54:31;98248.97;;;6.42;42.31
40285;BME280;25997;50.214;19.354;2024-03-08T09:57:36;98246.16;;;6.37;42.43
40285;BME280;25997;50.214;19.354;2024-03-08T10:00:40;98238.78;;;6.48;42.50
40285;BME280;25997;50.214;19.354;2024-03-08T10:03:42;98245.59;;;6.64;42.31
40285;BME280;25997;50.214;19.354;2024-03-08T10:06:45;98244.25;;;6.73;42.10
40285;BME280;25997;50.214;19.354;2024-03-08T10:09:48;98241.25;;;6.83;41.88
40285;BME280;25997;50.214;19.354;2024-03-08T10:12:55;98242.34;;;6.88;41.52
40285;BME280;25997;50.214;19.354;2024-03-08T10:16:00;98244.50;;;6.98;41.75
40285;BME280;25997;50.214;19.354;2024-03-08T10:19:02;98239.09;;;6.94;41.89
40285;BME280;25997;50.214;19.354;2024-03-08T10:22:07;98244.09;;;7.29;42.89
40285;BME280;25997;50.214;19.354;2024-03-08T10:25:16;98241.72;;;7.76;42.85
40285;BME280;25997;50.214;19.354;2024-03-08T10:28:18;98236.22;;;8.35;42.43
40285;BME280;25997;50.214;19.354;2024-03-08T10:31:22;98230.00;;;8.79;42.05
40285;BME280;25997;50.214;19.354;2024-03-08T10:34:24;98232.25;;;8.92;41.95
40285;BME280;25997;50.214;19.354;2024-03-08T10:37:27;98233.59;;;9.32;41.88
40285;BME280;25997;50.214;19.354;2024-03-08T10:40:30;98228.03;;;9.48;40.77
40285;BME280;25997;50.214;19.354;2024-03-08T10:43:42;98223.00;;;9.54;40.67
40285;BME280;25997;50.214;19.354;2024-03-08T10:47:00;98219.69;;;9.59;39.71
40285;BME280;25997;50.214;19.354;2024-03-08T10:50:11;98212.16;;;9.96;38.75
40285;BME280;25997;50.214;19.354;2024-03-08T10:53:14;98217.75;;;10.35;39.52
40285;BME280;25997;50.214;19.354;2024-03-08T10:56:16;98206.38;;;10.35;39.61
40285;BME280;25997;50.214;19.354;2024-03-08T10:59:19;98208.03;;;10.62;39.70
40285;BME280;25997;50.214;19.354;2024-03-08T11:02:25;98208.66;;;10.84;38.76
40285;BME280;25997;50.214;19.354;2024-03-08T11:05:32;98209.75;;;11.24;38.30
40285;BME280;25997;50.214;19.354;2024-03-08T11:08:38;98202.56;;;11.52;38.02
40285;BME280;25997;50.214;19.354;2024-03-08T11:11:41;98201.09;;;11.63;38.20
40285;BME280;25997;50.214;19.354;2024-03-08T11:14:44;98195.09;;;12.04;37.71
40285;BME280;25997;50.214;19.354;2024-03-08T11:17:51;98190.34;;;12.27;37.25
40285;BME280;25997;50.214;19.354;2024-03-08T11:20:56;98186.56;;;12.54;37.20
40285;BME280;25997;50.214;19.354;2024-03-08T11:23:59;98191.81;;;12.54;36.95
40285;BME280;25997;50.214;19.354;2024-03-08T11:27:03;98189.22;;;12.56;36.10
40285;BME280;25997;50.214;19.354;2024-03-08T11:30:07;98171.78;;;12.21;35.79
40285;BME280;25997;50.214;19.354;2024-03-08T11:33:14;98169.63;;;12.43;35.76
40285;BME280;25997;50.214;19.354;2024-03-08T11:36:20;98172.22;;;12.85;36.18
40285;BME280;25997;50.214;19.354;2024-03-08T11:39:23;98173.84;;;13.22;36.07
40285;BME280;25997;50.214;19.354;2024-03-08T11:42:25;98176.22;;;13.57;35.54
40285;BME280;25997;50.214;19.354;2024-03-08T11:45:28;98168.47;;;13.68;35.39
40285;BME280;25997;50.214;19.354;2024-03-08T11:48:32;98172.63;;;13.54;34.86
40285;BME280;25997;50.214;19.354;2024-03-08T11:51:34;98167.22;;;12.99;34.82
40285;BME280;25997;50.214;19.354;2024-03-08T11:54:37;98163.00;;;13.07;34.92
40285;BME280;25997;50.214;19.354;2024-03-08T11:57:39;98162.88;;;13.50;34.81
40285;BME280;25997;50.214;19.354;2024-03-08T12:00:42;98162.94;;;13.53;35.15
40285;BME280;25997;50.214;19.354;2024-03-08T12:03:52;98163.66;;;13.98;33.74
40285;BME280;25997;50.214;19.354;2024-03-08T12:06:55;98159.72;;;13.72;34.01
40285;BME280;25997;50.214;19.354;2024-03-08T12:10:17;98152.41;;;13.53;30.12
40285;BME280;25997;50.214;19.354;2024-03-08T12:13:19;98144.03;;;13.83;34.38
40285;BME280;25997;50.214;19.354;2024-03-08T12:16:23;98145.38;;;14.12;33.87
40285;BME280;25997;50.214;19.354;2024-03-08T12:19:27;98154.81;;;14.62;34.06
40285;BME280;25997;50.214;19.354;2024-03-08T12:22:30;98144.22;;;14.58;32.60
40285;BME280;25997;50.214;19.354;2024-03-08T12:25:33;98142.69;;;14.09;32.96
40285;BME280;25997;50.214;19.354;2024-03-08T12:28:36;98131.88;;;13.94;33.53
40285;BME280;25997;50.214;19.354;2024-03-08T12:31:39;98139.69;;;14.49;33.35
40285;BME280;25997;50.214;19.354;2024-03-08T12:34:52;98131.38;;;14.86;31.60
40285;BME280;25997;50.214;19.354;2024-03-08T12:37:56;98135.38;;;14.56;32.08
40285;BME280;25997;50.214;19.354;2024-03-08T12:40:59;98129.72;;;14.24;32.42
40285;BME280;25997;50.214;19.354;2024-03-08T12:44:01;98121.91;;;14.36;32.97
40285;BME280;25997;50.214;19.354;2024-03-08T12:47:08;98118.25;;;14.97;32.01
40285;BME280;25997;50.214;19.354;2024-03-08T12:50:12;98109.69;;;15.25;32.37
40285;BME280;25997;50.214;19.354;2024-03-08T12:53:14;98107.31;;;15.60;32.02
40285;BME280;25997;50.214;19.354;2024-03-08T12:56:31;98111.25;;;16.22;30.85
40285;BME280;25997;50.214;19.354;2024-03-08T12:59:34;98114.06;;;16.59;31.34
40285;BME280;25997;50.214;19.354;2024-03-08T13:02:36;98109.69;;;16.71;31.72
40285;BME280;25997;50.214;19.354;2024-03-08T13:05:40;98106.19;;;16.93;31.00
40285;BME280;25997;50.214;19.354;2024-03-08T13:08:43;98098.25;;;16.86;30.88
40285;BME280;25997;50.214;19.354;2024-03-08T13:11:45;98096.50;;;17.00;30.94
40285;BME280;25997;50.214;19.354;2024-03-08T13:14:48;98088.59;;;17.23;30.86
40285;BME280;25997;50.214;19.354;2024-03-08T13:17:50;98084.13;;;17.02;30.30
40285;BME280;25997;50.214;19.354;2024-03-08T13:20:54;98079.63;;;16.69;30.19
40285;BME280;25997;50.214;19.354;2024-03-08T13:23:57;98083.22;;;16.82;30.24
40285;BME280;25997;50.214;19.354;2024-03-08T13:27:01;98075.00;;;16.12;30.44
40285;BME280;25997;50.214;19.354;2024-03-08T13:30:17;98079.50;;;16.33;30.36
40285;BME280;25997;50.214;19.354;2024-03-08T13:33:24;98080.53;;;16.76;30.46
40285;BME280;25997;50.214;19.354;2024-03-08T13:36:29;98077.97;;;17.19;29.21
40285;BME280;25997;50.214;19.354;2024-03-08T13:39:39;98075.31;;;17.44;29.91
40285;BME280;25997;50.214;19.354;2024-03-08T13:42:45;98079.75;;;17.43;29.34
40285;BME280;25997;50.214;19.354;2024-03-08T13:45:49;98069.09;;;17.58;29.31
40285;BME280;25997;50.214;19.354;2024-03-08T13:48:52;98076.16;;;17.76;29.54
40285;BME280;25997;50.214;19.354;2024-03-08T13:52:05;98072.56;;;17.89;28.97
40285;BME280;25997;50.214;19.354;2024-03-08T13:55:09;98064.66;;;17.72;29.05
40285;BME280;25997;50.214;19.354;2024-03-08T13:58:15;98064.69;;;17.47;29.06
40285;BME280;25997;50.214;19.354;2024-03-08T14:01:17;98060.28;;;17.35;29.34
40285;BME280;25997;50.214;19.354;2024-03-08T14:04:19;98057.56;;;16.94;29.05
40285;BME280;25997;50.214;19.354;2024-03-08T14:07:23;98060.25;;;17.17;29.16
40285;BME280;25997;50.214;19.354;2024-03-08T14:10:25;98058.50;;;17.42;29.09
40285;BME280;25997;50.214;19.354;2024-03-08T14:16:30;98056.72;;;17.01;29.03
40285;BME280;25997;50.214;19.354;2024-03-08T14:19:32;98047.00;;;17.28;28.79
40285;BME280;25997;50.214;19.354;2024-03-08T14:22:36;98050.53;;;17.45;28.82
40285;BME280;25997;50.214;19.354;2024-03-08T14:25:38;98050.53;;;17.31;28.31
40285;BME280;25997;50.214;19.354;2024-03-08T14:28:40;98043.41;;;16.73;28.44
40285;BME280;25997;50.214;19.354;2024-03-08T14:31:42;98046.84;;;16.35;28.86
40285;BME280;25997;50.214;19.354;2024-03-08T14:34:45;98048.47;;;16.03;28.82
40285;BME280;25997;50.214;19.354;2024-03-08T14:37:49;98054.78;;;16.38;29.13
40285;BME280;25997;50.214;19.354;2024-03-08T14:40:53;98058.38;;;16.60;28.92
40285;BME280;25997;50.214;19.354;2024-03-08T14:43:56;98048.69;;;16.59;28.47
40285;BME280;25997;50.214;19.354;2024-03-08T14:46:59;98044.28;;;16.67;28.62
40285;BME280;25997;50.214;19.354;2024-03-08T14:50:01;98041.63;;;16.72;28.50
40285;BME280;25997;50.214;19.354;2024-03-08T14:53:05;98044.28;;;16.72;28.34
40285;BME280;25997;50.214;19.354;2024-03-08T14:56:08;98040.72;;;16.50;28.26
40285;BME280;25997;50.214;19.354;2024-03-08T14:59:10;98036.31;;;16.63;28.83
40285;BME280;25997;50.214;19.354;2024-03-08T15:02:12;98038.97;;;16.76;28.12
40285;BME280;25997;50.214;19.354;2024-03-08T15:05:15;98035.31;;;16.30;28.41
40285;BME280;25997;50.214;19.354;2024-03-08T15:08:23;98031.72;;;16.16;28.85
40285;BME280;25997;50.214;19.354;2024-03-08T15:11:26;98036.19;;;16.23;28.57
40285;BME280;25997;50.214;19.354;2024-03-08T15:14:28;98030.84;;;16.16;28.35
40285;BME280;25997;50.214;19.354;2024-03-08T15:17:30;98028.16;;;16.05;28.60
40285;BME280;25997;50.214;19.354;2024-03-08T15:20:33;98029.09;;;16.15;28.64
40285;BME280;25997;50.214;19.354;2024-03-08T15:23:37;98025.44;;;15.84;28.56
40285;BME280;25997;50.214;19.354;2024-03-08T15:26:44;98025.28;;;15.60;28.72
40285;BME280;25997;50.214;19.354;2024-03-08T15:29:46;98023.38;;;15.41;28.84
40285;BME280;25997;50.214;19.354;2024-03-08T15:32:52;98022.34;;;15.19;28.86
40285;BME280;25997;50.214;19.354;2024-03-08T15:35:57;98017.84;;;15.08;29.00
40285;BME280;25997;50.214;19.354;2024-03-08T15:39:05;98019.53;;;14.99;28.73
40285;BME280;25997;50.214;19.354;2024-03-08T15:42:10;98015.88;;;14.87;29.05
40285;BME280;25997;50.214;19.354;2024-03-08T15:45:13;98018.22;;;14.57;29.36
40285;BME280;25997;50.214;19.354;2024-03-08T15:48:15;98017.88;;;14.25;29.33
40285;BME280;25997;50.214;19.354;2024-03-08T15:51:18;98013.34;;;14.10;29.31
40285;BME280;25997;50.214;19.354;2024-03-08T15:54:21;98022.72;;;13.89;29.54
40285;BME280;25997;50.214;19.354;2024-03-08T15:57:24;98019.53;;;13.48;29.68
40285;BME280;25997;50.214;19.354;2024-03-08T16:00:26;98014.72;;;13.20;29.93
40285;BME280;25997;50.214;19.354;2024-03-08T16:03:36;98017.69;;;12.88;30.06
40285;BME280;25997;50.214;19.354;2024-03-08T16:06:38;98018.78;;;12.50;30.39
40285;BME280;25997;50.214;19.354;2024-03-08T16:09:43;98013.69;;;12.13;30.56
40285;BME280;25997;50.214;19.354;2024-03-08T16:12:45;98016.28;;;11.70;30.96